Time;durP1;ratioP1;P1;durP2;ratioP2;P2;SDS_P1;SDS_P2;PMS_P1;PMS_P2;Temp;Humidity;BMP_temperature;BMP_pressure;BME280_temperature;BME280_humidity;BME280_pressure;Samples;Min_cycle;Max_cycle;Signal;HPM_P1;HPM_P2
2023/04/14 00:00:01;;;;;;;12.70;6.30;;;;;;;22.46;39.04;99328.42;108296;1251;60833;-68
2023/04/14 00:02:41;;;;;;;;;;;;;;;22.56;38.88;99323.17;108268;1251;59492;-67
2023/04/14 00:05:10;;;;;;;11.60;6.40;;;;;;;22.47;39.07;99325.46;108301;1251;72109;-65
2023/04/14 00:07:39;;;;;;;9.70;6.40;;;;;;;22.44;39.01;99325.04;108229;1251;69669;-66
2023/04/14 00:10:08;;;;;;;11.60;6.90;;;;;;;22.42;39.23;99324.92;108345;1251;71988;-66
2023/04/14 00:12:37;;;;;;;10.30;6.60;;;;;;;22.43;39.25;99331.98;108263;1256;60843;-66
2023/04/14 00:15:06;;;;;;;10.50;6.90;;;;;;;22.23;39.80;99336.36;108250;1256;60685;-66
2023/04/14 00:17:36;;;;;;;10.90;7.60;;;;;;;22.08;40.07;99332.67;108289;1251;73039;-66
2023/04/14 00:20:05;;;;;;;12.60;7.20;;;;;;;22.03;40.13;99334.04;108248;1251;70609;-66
2023/04/14 00:22:33;;;;;;;11.30;7.20;;;;;;;22.14;39.87;99330.48;108337;1251;73026;-66
2023/04/14 00:25:02;;;;;;;11.60;6.70;;;;;;;22.32;39.70;99327.28;108296;1251;61381;-66
2023/04/14 00:27:31;;;;;;;14.90;7.70;;;;;;;22.24;39.84;99326.05;108528;1251;59625;-66
2023/04/14 00:30:04;;;;;;;11.70;6.60;;;;;;;22.30;39.68;99326.60;108496;1251;71513;-66
2023/04/14 00:32:39;;;;;;;10.10;6.60;;;;;;;21.69;40.59;99331.77;108513;1251;71257;-66
2023/04/14 00:35:07;;;;;;;13.30;8.80;;;;;;;21.80;40.33;99334.52;108462;1251;72822;-64
2023/04/14 00:37:36;;;;;;;11.30;6.80;;;;;;;21.51;40.69;99335.96;108255;1251;62185;-63
2023/04/14 00:40:08;;;;;;;12.90;7.90;;;;;;;21.70;40.35;99337.45;108249;1254;59863;-66
2023/04/14 00:42:45;;;;;;;13.50;7.60;;;;;;;21.60;40.41;99336.95;108356;1251;73393;-67
2023/04/14 00:45:14;;;;;;;13.80;7.90;;;;;;;21.99;39.79;99336.95;108337;1251;69739;-66
2023/04/14 00:47:45;;;;;;;16.60;8.60;;;;;;;22.21;39.37;99337.14;108324;1251;73291;-65
2023/04/14 00:50:16;;;;;;;17.50;8.90;;;;;;;22.31;39.17;99338.67;108315;1251;61745;-64
2023/04/14 00:52:45;;;;;;;11.40;8.10;;;;;;;22.11;39.39;99333.08;108178;1251;60939;-65
2023/04/14 00:55:14;;;;;;;15.10;9.20;;;;;;;21.85;39.87;99336.46;108315;1251;73279;-66
2023/04/14 00:57:43;;;;;;;11.10;8.20;;;;;;;21.83;39.90;99334.36;108239;1251;70713;-66
2023/04/14 01:00:12;;;;;;;15.00;9.70;;;;;;;21.97;39.67;99334.98;108219;1251;73547;-66
2023/04/14 01:02:45;;;;;;;13.60;8.90;;;;;;;21.98;39.76;99340.44;108239;1251;61914;-65
2023/04/14 01:05:14;;;;;;;14.10;9.00;;;;;;;21.96;39.69;99344.15;108157;1251;61713;-66
2023/04/14 01:07:43;;;;;;;16.10;9.90;;;;;;;21.88;39.89;99345.25;108344;1251;73473;-66
2023/04/14 01:10:11;;;;;;;11.50;8.70;;;;;;;21.88;40.02;99345.29;108287;1251;71576;-65
2023/04/14 01:12:59;;;;;;;15.40;8.50;;;;;;;21.98;39.83;99345.98;108263;1251;73884;-66
2023/04/14 01:15:34;;;;;;;14.60;9.20;;;;;;;22.05;39.59;99346.21;108284;1255;62013;-66
2023/04/14 01:18:12;;;;;;;14.80;8.50;;;;;;;22.14;39.54;99349.08;108265;1251;61322;-66
2023/04/14 01:20:43;;;;;;;14.40;9.80;;;;;;;22.16;39.50;99347.97;108301;1251;71765;-66
2023/04/14 01:23:16;;;;;;;15.40;9.00;;;;;;;22.17;39.41;99352.17;108223;1251;71347;-66
2023/04/14 01:26:07;;;;;;;20.20;10.20;;;;;;;21.84;39.83;99351.73;108117;1251;74018;-66
2023/04/14 01:28:57;;;;;;;15.40;9.20;;;;;;;21.29;40.85;99351.08;108251;1251;61412;-67
2023/04/14 01:32:00;;;;;;;14.70;9.40;;;;;;;21.26;40.93;99349.73;108272;1251;61683;-67
2023/04/14 01:34:44;;;;;;;15.40;10.30;;;;;;;21.21;41.28;99352.52;108251;1251;73884;-66
2023/04/14 01:37:16;;;;;;;18.20;9.70;;;;;;;21.34;41.09;99351.45;108313;1255;68350;-64
2023/04/14 01:39:47;;;;;;;20.40;11.30;;;;;;;21.50;40.87;99351.45;108393;1251;73358;-66
2023/04/14 01:42:17;;;;;;;19.70;12.00;;;;;;;21.56;40.77;99344.43;108216;1251;61338;-66
2023/04/14 01:44:45;;;;;;;18.90;11.50;;;;;;;21.56;40.71;99344.39;108260;1251;61571;-67
2023/04/14 01:47:14;;;;;;;12.90;8.40;;;;;;;21.73;40.47;99350.83;108119;1251;74323;-66
2023/04/14 01:49:42;;;;;;;14.50;9.60;;;;;;;21.94;40.11;99352.59;108319;1251;70622;-66
2023/04/14 01:52:12;;;;;;;15.20;10.40;;;;;;;22.31;39.54;99354.02;108253;1251;73704;-65
2023/04/14 01:54:41;;;;;;;16.80;10.50;;;;;;;22.17;39.74;99354.09;108282;1253;61342;-65
2023/04/14 01:57:10;;;;;;;16.10;9.50;;;;;;;22.06;39.84;99354.12;108330;1254;60342;-67
2023/04/14 01:59:39;;;;;;;19.70;11.80;;;;;;;21.70;40.52;99357.73;108041;1254;72958;-66
2023/04/14 02:02:10;;;;;;;17.60;10.70;;;;;;;21.79;40.57;99359.80;108037;1259;70357;-66
2023/04/14 02:04:38;;;;;;;19.30;11.30;;;;;;;22.07;40.00;99356.17;108050;1251;72954;-67
2023/04/14 02:07:07;;;;;;;20.60;11.20;;;;;;;21.70;40.54;99357.68;108253;1251;62183;-64
2023/04/14 02:09:35;;;;;;;18.80;11.50;;;;;;;21.28;41.25;99366.13;108218;1251;60449;-65
2023/04/14 02:12:03;;;;;;;17.90;11.70;;;;;;;20.76;42.21;99368.08;108134;1251;75091;-66
2023/04/14 02:14:31;;;;;;;20.00;11.90;;;;;;;20.69;42.57;99370.92;108184;1251;69580;-66
2023/04/14 02:17:01;;;;;;;21.90;11.60;;;;;;;20.61;42.72;99372.51;108173;1257;73854;-66
2023/04/14 02:19:30;;;;;;;19.60;12.40;;;;;;;20.63;42.83;99374.26;108230;1251;61414;-65
2023/04/14 02:21:58;;;;;;;18.90;11.30;;;;;;;20.73;42.78;99377.15;108178;1251;59919;-66
2023/04/14 02:24:27;;;;;;;20.60;12.20;;;;;;;20.63;43.01;99379.42;108283;1251;74270;-66
2023/04/14 02:27:04;;;;;;;18.80;12.50;;;;;;;20.87;42.63;99378.39;108276;1251;69156;-66
2023/04/14 02:29:32;;;;;;;23.80;13.00;;;;;;;21.48;41.51;99380.00;108220;1251;73959;-65
2023/04/14 02:32:05;;;;;;;25.40;13.30;;;;;;;21.49;41.41;99383.91;108193;1251;62400;-65
2023/04/14 02:34:34;;;;;;;18.80;12.10;;;;;;;21.01;42.39;99381.73;108309;1251;60313;-66
2023/04/14 02:37:09;;;;;;;19.70;12.20;;;;;;;21.26;42.02;99384.54;108309;1251;74263;-66
2023/04/14 02:39:40;;;;;;;20.70;12.90;;;;;;;21.83;41.05;99382.93;108315;1251;71260;-65
2023/04/14 02:42:15;;;;;;;18.80;13.00;;;;;;;21.61;41.23;99380.75;108316;1251;70470;-65
2023/04/14 02:44:48;;;;;;;18.30;11.60;;;;;;;20.73;42.63;99390.63;108247;1251;62415;-66
2023/04/14 02:47:25;;;;;;;22.00;14.00;;;;;;;20.16;43.83;99394.46;108218;1251;61211;-65
2023/04/14 02:49:56;;;;;;;23.10;13.40;;;;;;;20.60;43.16;99393.48;108191;1251;72743;-67
2023/04/14 02:52:28;;;;;;;23.00;14.80;;;;;;;20.20;43.77;99400.20;108289;1251;70995;-66
2023/04/14 02:54:59;;;;;;;21.80;14.30;;;;;;;20.61;43.28;99399.46;108059;1254;72062;-65
2023/04/14 02:57:28;;;;;;;22.30;14.10;;;;;;;21.02;42.63;99399.64;107902;1253;62432;-65
2023/04/14 02:59:57;;;;;;;22.70;14.40;;;;;;;21.28;41.99;99399.17;108027;1254;60198;-66
2023/04/14 03:02:28;;;;;;;20.80;14.20;;;;;;;21.09;42.35;99400.79;108332;1251;74551;-65
2023/04/14 03:05:05;;;;;;;22.80;15.00;;;;;;;21.13;42.28;99403.23;108194;1251;70569;-65
2023/04/14 03:07:41;;;;;;;23.50;15.00;;;;;;;21.37;41.75;99403.68;108059;1251;73922;-67
2023/04/14 03:10:10;;;;;;;23.50;14.50;;;;;;;21.53;41.56;99404.89;108229;1251;62172;-66
2023/04/14 03:12:41;;;;;;;28.10;15.50;;;;;;;21.68;41.27;99406.22;108191;1253;60310;-66
2023/04/14 03:15:10;;;;;;;27.70;15.80;;;;;;;22.05;40.59;99410.14;108171;1251;75027;-64
2023/04/14 03:17:39;;;;;;;26.90;15.40;;;;;;;21.86;40.95;99412.30;108290;1251;70865;-66
2023/04/14 03:20:12;;;;;;;30.90;17.30;;;;;;;21.69;41.10;99413.94;108283;1255;73725;-66
2023/04/14 03:22:40;;;;;;;25.80;14.90;;;;;;;21.72;41.09;99417.28;108118;1254;60543;-66
2023/04/14 03:25:11;;;;;;;26.00;16.10;;;;;;;21.88;40.93;99419.49;108133;1251;60466;-67
2023/04/14 03:27:40;;;;;;;24.60;15.90;;;;;;;21.61;41.20;99423.11;108260;1251;74996;-67
2023/04/14 03:30:09;;;;;;;24.60;15.50;;;;;;;21.19;41.99;99428.98;108085;1251;71144;-67
2023/04/14 03:32:40;;;;;;;23.50;14.20;;;;;;;21.02;42.52;99430.66;108170;1251;73864;-67
2023/04/14 03:35:13;;;;;;;23.60;15.10;;;;;;;20.94;42.55;99429.27;108198;1253;61745;-67
2023/04/14 03:37:41;;;;;;;27.90;15.40;;;;;;;21.17;42.22;99433.42;108087;1251;60960;-65
2023/04/14 03:40:10;;;;;;;24.30;15.90;;;;;;;21.32;41.85;99435.94;108262;1251;74434;-65
2023/04/14 03:42:43;;;;;;;26.60;16.30;;;;;;;21.42;41.71;99437.33;108133;1259;68726;-66
2023/04/14 03:45:12;;;;;;;25.80;16.10;;;;;;;21.38;41.79;99440.73;108249;1251;72319;-66
2023/04/14 03:47:41;;;;;;;29.00;16.90;;;;;;;21.42;41.68;99444.10;108243;1251;62441;-66
2023/04/14 03:50:09;;;;;;;25.60;17.10;;;;;;;21.63;41.33;99441.08;108254;1251;61376;-65
2023/04/14 03:52:38;;;;;;;29.10;18.90;;;;;;;21.61;41.42;99442.41;108370;1251;75019;-66
2023/04/14 03:55:07;;;;;;;31.00;18.90;;;;;;;21.73;41.29;99443.57;108199;1253;71729;-66
2023/04/14 03:57:37;;;;;;;40.40;20.60;;;;;;;21.76;41.15;99447.91;108278;1254;73849;-66
2023/04/14 04:00:08;;;;;;;31.70;20.00;;;;;;;21.65;41.36;99448.11;108034;1253;60431;-66
2023/04/14 04:02:45;;;;;;;28.10;19.50;;;;;;;21.76;41.21;99453.90;108242;1253;60418;-67
2023/04/14 04:05:13;;;;;;;29.80;19.50;;;;;;;22.15;40.55;99453.31;108090;1254;74609;-66
2023/04/14 04:07:43;;;;;;;28.60;18.40;;;;;;;22.39;40.31;99456.40;108045;1253;69967;-66
2023/04/14 04:10:11;;;;;;;26.00;17.50;;;;;;;22.15;40.54;99459.05;108044;1252;73091;-67
2023/04/14 04:12:42;;;;;;;30.20;18.30;;;;;;;22.08;40.66;99459.04;108240;1252;61680;-66
2023/04/14 04:15:20;;;;;;;25.30;17.80;;;;;;;22.20;40.56;99460.02;108142;1252;60508;-67
2023/04/14 04:17:49;;;;;;;28.20;17.60;;;;;;;22.25;40.33;99462.45;108150;1253;74746;-66
2023/04/14 04:20:17;;;;;;;27.50;18.30;;;;;;;22.28;40.51;99464.94;108211;1254;71662;-67
2023/04/14 04:22:46;;;;;;;30.60;18.90;;;;;;;22.17;40.48;99466.95;108062;1254;72566;-69
2023/04/14 04:25:15;;;;;;;27.30;18.20;;;;;;;22.26;40.59;99467.29;108264;1252;61265;-66
2023/04/14 04:27:48;;;;;;;33.00;19.60;;;;;;;22.31;40.27;99469.75;108270;1253;60175;-67
2023/04/14 04:30:17;;;;;;;29.20;17.90;;;;;;;22.07;40.75;99471.50;108276;1254;74798;-66
2023/04/14 04:32:46;;;;;;;27.20;18.00;;;;;;;21.83;41.24;99475.17;108119;1254;71630;-67
2023/04/14 04:35:14;;;;;;;28.80;18.90;;;;;;;22.11;40.88;99474.98;108058;1253;71534;-65
2023/04/14 04:37:44;;;;;;;31.70;18.70;;;;;;;22.25;40.55;99476.19;108079;1253;62367;-66
2023/04/14 04:40:12;;;;;;;27.00;18.10;;;;;;;22.33;40.61;99474.84;108009;1259;61320;-67
2023/04/14 04:42:41;;;;;;;30.50;18.80;;;;;;;22.28;40.55;99475.69;108062;1254;73962;-67
2023/04/14 04:45:11;;;;;;;;;;;;;;;22.30;40.71;99476.04;108095;1253;70841;-67
2023/04/14 04:47:41;;;;;;;32.40;18.80;;;;;;;22.38;40.55;99477.06;108204;1254;73059;-67
2023/04/14 04:50:09;;;;;;;29.70;19.00;;;;;;;22.56;40.26;99481.44;108261;1253;60431;-67
2023/04/14 04:52:37;;;;;;;28.20;18.50;;;;;;;22.58;40.39;99482.81;108347;1253;61909;-66
2023/04/14 04:55:06;;;;;;;29.60;18.80;;;;;;;22.63;40.04;99481.85;108330;1251;74834;-67
2023/04/14 04:57:35;;;;;;;29.70;18.10;;;;;;;22.61;40.24;99484.83;108362;1251;69995;-67
2023/04/14 05:00:04;;;;;;;29.80;19.30;;;;;;;22.63;40.31;99486.42;108297;1253;73349;-66
2023/04/14 05:02:35;;;;;;;27.30;17.30;;;;;;;22.52;40.47;99482.36;108286;1251;61574;-67
2023/04/14 05:05:04;;;;;;;29.60;18.00;;;;;;;22.38;40.75;99485.09;108200;1251;61600;-67
2023/04/14 05:07:32;;;;;;;28.40;16.70;;;;;;;22.52;40.63;99480.73;108281;1251;74070;-68
2023/04/14 05:10:04;;;;;;;26.20;17.10;;;;;;;22.59;40.46;99481.52;108217;1251;69532;-68
2023/04/14 05:12:34;;;;;;;26.30;17.70;;;;;;;22.76;40.12;99483.92;108227;1251;72716;-66
2023/04/14 05:15:02;;;;;;;25.50;17.90;;;;;;;22.77;40.15;99482.92;108256;1251;62093;-67
2023/04/14 05:17:31;;;;;;;27.70;17.80;;;;;;;23.02;39.77;99484.05;108252;1251;61001;-67
2023/04/14 05:20:00;;;;;;;28.30;17.70;;;;;;;22.78;40.11;99485.52;108253;1251;75184;-67
2023/04/14 05:22:29;;;;;;;30.30;17.20;;;;;;;22.50;40.46;99494.16;108290;1251;72007;-67
2023/04/14 05:24:57;;;;;;;27.00;17.40;;;;;;;22.61;40.34;99503.85;108191;1251;73736;-67
2023/04/14 05:27:25;;;;;;;25.90;17.10;;;;;;;22.98;39.89;99505.05;108243;1251;62666;-67
2023/04/14 05:29:54;;;;;;;30.10;18.20;;;;;;;23.20;39.53;99505.21;108294;1251;60424;-66
2023/04/14 05:32:22;;;;;;;29.10;18.10;;;;;;;23.37;38.97;99508.95;108262;1255;74880;-67
2023/04/14 05:34:50;;;;;;;29.20;18.20;;;;;;;23.08;39.29;99506.12;108203;1251;70292;-66
2023/04/14 05:37:18;;;;;;;27.70;16.50;;;;;;;22.76;39.89;99511.44;108230;1251;73285;-66
2023/04/14 05:39:46;;;;;;;27.30;17.50;;;;;;;22.85;39.69;99510.97;108305;1251;62096;-66
2023/04/14 05:42:15;;;;;;;28.20;17.80;;;;;;;22.97;39.46;99513.90;108326;1251;61003;-66
2023/04/14 05:44:43;;;;;;;26.60;16.60;;;;;;;23.13;39.23;99509.85;108236;1251;74973;-67
2023/04/14 05:47:11;;;;;;;27.50;18.20;;;;;;;23.05;39.31;99510.44;108211;1251;71488;-66
2023/04/14 05:49:39;;;;;;;28.90;18.40;;;;;;;22.92;39.57;99517.42;108251;1251;73073;-66
2023/04/14 05:52:08;;;;;;;27.30;17.30;;;;;;;22.84;39.63;99515.73;108230;1253;62569;-67
2023/04/14 05:54:38;;;;;;;27.40;17.90;;;;;;;23.16;39.19;99513.81;108208;1253;60322;-66
2023/04/14 05:57:09;;;;;;;25.00;15.60;;;;;;;22.97;39.35;99518.42;108228;1253;75038;-66
2023/04/14 05:59:38;;;;;;;29.30;18.50;;;;;;;23.06;39.25;99519.34;108096;1254;70555;-66
2023/04/14 06:02:06;;;;;;;26.70;18.10;;;;;;;23.03;39.49;99523.05;108228;1254;73967;-67
2023/04/14 06:04:35;;;;;;;30.30;18.00;;;;;;;23.02;39.50;99522.92;108193;1252;61909;-67
2023/04/14 06:07:03;;;;;;;27.90;17.50;;;;;;;22.99;39.73;99529.33;108236;1254;60321;-67
2023/04/14 06:09:33;;;;;;;26.90;15.90;;;;;;;23.00;39.62;99528.99;108260;1252;74616;-66
2023/04/14 06:12:06;;;;;;;28.10;17.80;;;;;;;22.97;39.81;99536.45;108269;1253;69311;-66
2023/04/14 06:14:35;;;;;;;27.80;18.00;;;;;;;23.15;39.38;99538.46;108132;1253;73595;-68
2023/04/14 06:17:08;;;;;;;28.40;17.80;;;;;;;23.19;39.37;99536.84;108242;1252;62413;-67
2023/04/14 06:19:36;;;;;;;30.70;19.30;;;;;;;23.24;39.42;99538.16;108292;1253;59112;-67
2023/04/14 06:22:05;;;;;;;26.00;16.30;;;;;;;23.32;39.39;99540.39;108221;1254;75067;-66
2023/04/14 06:24:34;;;;;;;30.90;18.60;;;;;;;23.46;39.03;99544.18;108245;1253;68860;-66
2023/04/14 06:27:02;;;;;;;29.40;18.70;;;;;;;23.36;39.21;99546.14;108261;1253;72123;-67
2023/04/14 06:29:32;;;;;;;24.40;16.40;;;;;;;23.29;39.18;99547.17;108234;1252;62229;-67
2023/04/14 06:32:00;;;;;;;29.70;18.10;;;;;;;23.07;39.47;99559.16;108230;1256;60434;-67
2023/04/14 06:34:31;;;;;;;25.80;17.80;;;;;;;23.02;39.50;99562.15;108182;1254;74211;-67
2023/04/14 06:37:00;;;;;;;27.20;18.20;;;;;;;22.91;39.89;99564.65;108245;1253;70308;-67
2023/04/14 06:39:28;;;;;;;26.60;17.80;;;;;;;22.98;39.79;99565.60;108239;1254;73928;-67
2023/04/14 06:42:00;;;;;;;29.00;17.40;;;;;;;23.16;39.67;99570.21;108279;1253;63219;-66
2023/04/14 06:44:30;;;;;;;31.30;17.10;;;;;;;23.19;39.61;99572.10;108276;1252;60402;-67
2023/04/14 06:46:58;;;;;;;26.20;17.50;;;;;;;22.98;40.05;99568.78;108181;1252;74497;-67
2023/04/14 06:49:32;;;;;;;24.10;16.10;;;;;;;23.16;39.65;99564.84;108209;1253;71499;-67
2023/04/14 06:52:00;;;;;;;28.90;18.40;;;;;;;23.32;39.59;99566.33;108220;1256;72345;-67
2023/04/14 06:54:30;;;;;;;28.60;17.50;;;;;;;23.34;39.79;99566.94;108220;1256;60528;-65
2023/04/14 06:56:58;;;;;;;26.00;18.60;;;;;;;23.27;39.99;99568.05;108292;1251;60346;-68
2023/04/14 06:59:28;;;;;;;27.20;18.30;;;;;;;23.31;40.10;99572.70;108235;1250;73176;-67
2023/04/14 07:01:57;;;;;;;25.80;17.60;;;;;;;23.29;40.09;99570.72;108283;1254;70056;-67
2023/04/14 07:04:25;;;;;;;24.70;16.10;;;;;;;23.52;39.64;99573.88;108278;1254;73536;-67
2023/04/14 07:06:59;;;;;;;24.70;17.50;;;;;;;23.69;39.52;99573.46;108265;1251;62786;-67
2023/04/14 07:09:28;;;;;;;28.60;17.20;;;;;;;23.96;39.31;99577.83;108294;1251;60342;-67
2023/04/14 07:11:56;;;;;;;23.20;17.00;;;;;;;23.87;39.36;99577.81;108244;1250;73422;-67
2023/04/14 07:14:24;;;;;;;23.80;16.90;;;;;;;23.61;39.94;99580.85;108277;1251;69543;-67
2023/04/14 07:16:56;;;;;;;27.20;17.10;;;;;;;23.64;40.05;99582.61;108228;1251;73034;-66
2023/04/14 07:19:24;;;;;;;28.30;16.80;;;;;;;23.57;40.02;99582.09;108166;1251;62983;-67
2023/04/14 07:21:52;;;;;;;24.60;16.30;;;;;;;23.43;40.37;99585.54;108286;1251;61304;-67
2023/04/14 07:24:22;;;;;;;22.20;16.80;;;;;;;23.82;39.84;99588.81;108278;1251;72807;-66
2023/04/14 07:26:50;;;;;;;28.40;18.00;;;;;;;23.95;39.78;99591.41;108274;1251;71284;-66
2023/04/14 07:29:18;;;;;;;26.60;16.90;;;;;;;24.26;39.08;99593.79;108260;1251;73279;-66
2023/04/14 07:31:48;;;;;;;26.00;16.70;;;;;;;24.37;38.92;99591.97;108268;1251;62800;-67
2023/04/14 07:34:16;;;;;;;25.50;16.80;;;;;;;24.51;38.74;99595.61;108227;1251;61508;-66
2023/04/14 07:36:45;;;;;;;24.30;16.10;;;;;;;24.56;38.54;99593.65;108240;1250;74299;-67
2023/04/14 07:39:13;;;;;;;28.30;17.20;;;;;;;24.47;38.79;99593.28;108208;1251;71206;-67
2023/04/14 07:41:41;;;;;;;26.40;17.00;;;;;;;24.72;38.36;99593.58;108238;1251;73952;-67
2023/04/14 07:44:10;;;;;;;25.80;17.60;;;;;;;24.79;38.75;99593.74;108252;1251;60110;-66
2023/04/14 07:46:40;;;;;;;28.00;17.40;;;;;;;24.68;38.88;99589.86;108246;1251;60296;-67
2023/04/14 07:49:08;;;;;;;25.20;15.80;;;;;;;24.77;38.93;99590.01;108165;1251;74984;-67
2023/04/14 07:51:36;;;;;;;26.00;16.10;;;;;;;24.94;38.43;99589.33;108305;1251;69521;-66
2023/04/14 07:54:04;;;;;;;24.00;16.70;;;;;;;24.82;38.74;99586.02;108216;1251;72685;-67
2023/04/14 07:56:33;;;;;;;24.20;16.30;;;;;;;24.82;38.66;99586.59;108198;1254;62039;-67
2023/04/14 07:59:01;;;;;;;25.00;15.60;;;;;;;25.21;38.18;99589.14;108257;1253;60332;-66
2023/04/14 08:01:30;;;;;;;21.50;15.40;;;;;;;25.43;38.10;99592.02;108238;1256;74064;-66
2023/04/14 08:03:58;;;;;;;21.70;14.80;;;;;;;25.21;38.28;99589.13;108241;1253;71611;-67
2023/04/14 08:06:27;;;;;;;23.40;15.00;;;;;;;25.36;37.88;99586.80;108234;1254;73629;-66
2023/04/14 08:08:55;;;;;;;23.50;14.80;;;;;;;25.48;37.37;99588.94;108269;1252;61151;-65
2023/04/14 08:11:23;;;;;;;23.00;15.40;;;;;;;25.51;37.48;99587.73;108258;1253;60434;-66
2023/04/14 08:13:51;;;;;;;21.60;14.90;;;;;;;25.73;36.99;99590.55;108244;1256;72554;-64
2023/04/14 08:16:20;;;;;;;19.70;13.60;;;;;;;25.79;37.01;99595.82;108236;1254;70618;-67
2023/04/14 08:18:49;;;;;;;19.40;13.50;;;;;;;25.56;36.78;99595.08;108240;1252;73985;-67
2023/04/14 08:21:17;;;;;;;21.20;14.50;;;;;;;25.70;36.47;99597.50;108266;1253;63119;-67
2023/04/14 08:23:46;;;;;;;22.00;14.60;;;;;;;25.74;36.09;99597.80;108307;1253;61266;-67
2023/04/14 08:26:14;;;;;;;25.70;14.70;;;;;;;25.69;36.04;99602.44;108280;1253;73210;-66
2023/04/14 08:28:42;;;;;;;22.40;14.50;;;;;;;25.48;36.57;99608.85;108165;1254;71526;-67
2023/04/14 08:31:15;;;;;;;24.70;15.20;;;;;;;25.40;36.91;99618.07;108315;1254;72720;-67
2023/04/14 08:33:44;;;;;;;27.70;14.70;;;;;;;25.25;37.25;99616.00;108348;1252;61612;-67
2023/04/14 08:36:14;;;;;;;25.30;15.40;;;;;;;25.18;37.30;99621.36;108291;1252;60374;-67
2023/04/14 08:38:45;;;;;;;21.20;13.80;;;;;;;25.39;37.04;99627.05;108313;1254;73096;-67
2023/04/14 08:41:14;;;;;;;20.30;14.20;;;;;;;25.52;36.74;99627.09;108277;1254;71423;-67
2023/04/14 08:43:43;;;;;;;22.80;15.20;;;;;;;25.12;36.97;99628.53;108306;1253;73284;-68
2023/04/14 08:46:13;;;;;;;24.80;15.20;;;;;;;25.39;36.76;99628.44;108216;1256;63250;-67
2023/04/14 08:48:42;;;;;;;19.10;13.20;;;;;;;25.48;36.76;99632.08;108380;1253;60418;-67
2023/04/14 08:51:20;;;;;;;22.80;15.30;;;;;;;26.02;36.09;99629.21;108150;1254;74086;-67
2023/04/14 08:53:51;;;;;;;22.40;14.90;;;;;;;26.12;36.15;99629.97;108351;1251;70614;-67
2023/04/14 08:56:19;;;;;;;20.80;15.80;;;;;;;26.00;36.14;99628.61;108238;1251;73109;-67
2023/04/14 08:58:47;;;;;;;25.10;15.00;;;;;;;25.90;36.26;99629.89;108227;1251;61158;-67
2023/04/14 09:01:16;;;;;;;21.90;14.00;;;;;;;25.85;35.79;99628.42;108275;1251;60445;-66
2023/04/14 09:03:46;;;;;;;24.30;14.50;;;;;;;25.91;35.92;99629.52;108332;1251;74086;-68
2023/04/14 09:06:14;;;;;;;19.10;12.90;;;;;;;25.91;35.88;99628.71;108253;1256;71657;-67
2023/04/14 09:08:47;;;;;;;21.40;15.00;;;;;;;25.77;36.01;99630.22;108193;1256;73074;-66
2023/04/14 09:11:15;;;;;;;24.80;15.10;;;;;;;25.91;35.70;99628.14;108163;1251;61531;-67
2023/04/14 09:13:43;;;;;;;22.50;15.10;;;;;;;25.53;36.23;99623.65;108229;1251;60242;-66
2023/04/14 09:16:11;;;;;;;25.50;14.50;;;;;;;25.38;36.76;99625.98;108265;1251;74616;-67
2023/04/14 09:18:42;;;;;;;24.40;14.20;;;;;;;25.51;36.56;99624.05;108103;1258;71351;-66
2023/04/14 09:21:14;;;;;;;21.20;14.00;;;;;;;25.75;36.09;99621.02;108346;1251;72539;-66
2023/04/14 09:24:03;;;;;;;21.90;13.90;;;;;;;25.63;36.18;99617.87;108090;1251;61857;-67
2023/04/14 09:26:31;;;;;;;22.20;13.90;;;;;;;25.46;36.79;99620.98;108162;1256;60652;-66
2023/04/14 09:28:59;;;;;;;18.80;13.30;;;;;;;25.85;36.50;99617.93;108228;1251;74335;-67
2023/04/14 09:31:32;;;;;;;19.20;13.40;;;;;;;26.35;36.22;99624.20;108227;1251;71535;-66
2023/04/14 09:34:00;;;;;;;17.70;12.40;;;;;;;26.41;36.46;99623.00;108218;1251;73305;-67
2023/04/14 09:36:30;;;;;;;20.70;12.90;;;;;;;26.57;35.79;99621.29;108220;1251;63174;-66
2023/04/14 09:38:58;;;;;;;16.80;11.80;;;;;;;26.47;35.71;99623.71;108158;1251;61400;-67
2023/04/14 09:41:26;;;;;;;15.80;10.70;;;;;;;26.19;34.70;99627.39;108262;1251;73234;-66
2023/04/14 09:43:55;;;;;;;17.80;11.20;;;;;;;26.28;34.52;99625.83;108158;1251;69744;-67
2023/04/14 09:46:24;;;;;;;18.50;11.20;;;;;;;26.51;33.85;99624.05;108147;1251;73958;-66
2023/04/14 09:48:53;;;;;;;19.60;11.30;;;;;;;26.45;33.31;99626.23;108225;1251;62977;-67
2023/04/14 09:51:27;;;;;;;17.80;11.90;;;;;;;26.40;33.62;99626.95;108248;1251;60664;-66
2023/04/14 09:54:03;;;;;;;19.60;11.30;;;;;;;26.67;34.41;99622.60;108142;1255;232467;-66
2023/04/14 09:58:02;;;;;;;17.00;10.90;;;;;;;23.01;40.82;99636.51;104704;1292;599956;-68
2023/04/14 10:00:29;;;;;;;14.40;9.80;;;;;;;24.83;36.72;99638.70;107170;1265;62064;-68
2023/04/14 10:03:13;;;;;;;13.20;9.40;;;;;;;25.60;34.51;99645.67;107161;1266;60617;-67
2023/04/14 10:05:48;;;;;;;15.60;9.70;;;;;;;25.37;34.38;99644.02;107507;1260;73215;-68
2023/04/14 10:08:15;;;;;;;14.10;9.40;;;;;;;25.14;34.80;99646.77;107481;1265;69217;-68
2023/04/14 10:10:42;;;;;;;14.60;9.60;;;;;;;24.66;35.24;99647.70;107712;1254;186551;-67
2023/04/14 10:13:13;;;;;;;20.00;10.10;;;;;;;24.80;35.24;99654.46;107820;1254;63182;-67
2023/04/14 10:15:41;;;;;;;14.10;9.50;;;;;;;25.04;35.08;99658.30;107992;1254;61478;-68
2023/04/14 10:18:08;;;;;;;13.30;8.80;;;;;;;25.24;34.50;99661.02;108012;1254;71799;-67
2023/04/14 10:20:36;;;;;;;15.60;10.00;;;;;;;25.22;34.48;99666.41;108291;1253;70599;-68
2023/04/14 10:23:04;;;;;;;18.00;10.10;;;;;;;24.91;34.79;99671.33;108068;1252;72942;-67
2023/04/14 10:25:30;;;;;;;13.60;9.60;;;;;;;24.88;35.01;99666.59;108297;1253;59572;-67
2023/04/14 10:27:58;;;;;;;15.40;10.50;;;;;;;25.09;34.94;99668.48;108059;1253;61234;-66
2023/04/14 10:30:25;;;;;;;16.10;9.60;;;;;;;25.17;34.46;99673.02;108085;1253;59961;-66
2023/04/14 10:32:52;;;;;;;13.60;9.30;;;;;;;25.18;34.24;99676.20;108116;1253;70447;-67
2023/04/14 10:35:22;;;;;;;19.90;9.90;;;;;;;25.21;34.11;99679.08;108219;1253;72241;-67
2023/04/14 10:37:52;;;;;;;15.80;9.50;;;;;;;25.39;34.02;99679.25;108052;1251;63011;-67
2023/04/14 10:40:19;;;;;;;21.30;10.70;;;;;;;25.18;34.36;99685.75;108218;1252;60350;-67
2023/04/14 10:42:53;;;;;;;18.80;10.70;;;;;;;24.81;34.71;99689.95;108206;1253;73385;-67
2023/04/14 10:45:20;;;;;;;20.10;10.30;;;;;;;24.61;34.76;99693.40;108215;1255;69774;-67
2023/04/14 10:47:48;;;;;;;20.30;11.30;;;;;;;25.22;33.87;99698.58;108171;1254;71977;-67
2023/04/14 10:50:16;;;;;;;17.60;10.50;;;;;;;24.92;34.46;99700.23;108203;1252;62129;-67
2023/04/14 10:52:55;;;;;;;20.80;10.50;;;;;;;25.03;34.52;99707.06;108159;1253;59631;-65
2023/04/14 10:55:23;;;;;;;15.80;10.60;;;;;;;24.93;33.88;99705.90;108001;1254;74160;-67
2023/04/14 10:57:50;;;;;;;20.70;11.60;;;;;;;24.79;34.22;99710.27;108100;1254;70518;-67
2023/04/14 11:00:22;;;;;;;21.80;11.50;;;;;;;24.60;34.70;99712.94;107998;1257;74144;-67
2023/04/14 11:02:54;;;;;;;19.00;11.10;;;;;;;24.75;35.06;99716.27;108029;1254;62214;-67
2023/04/14 11:05:21;;;;;;;15.90;9.80;;;;;;;25.10;34.46;99716.77;108004;1257;60313;-67
2023/04/14 11:07:54;;;;;;;18.40;9.70;;;;;;;25.08;34.12;99717.25;107890;1253;73426;-67
2023/04/14 11:10:21;;;;;;;16.10;10.50;;;;;;;24.99;34.25;99719.79;108014;1257;71095;-66
2023/04/14 11:13:02;;;;;;;15.00;10.10;;;;;;;24.85;34.72;99721.25;107963;1254;73751;-67
2023/04/14 11:15:43;;;;;;;14.00;10.30;;;;;;;25.10;34.53;99724.09;108006;1254;62305;-67
2023/04/14 11:18:26;;;;;;;12.90;9.40;;;;;;;25.02;34.80;99720.74;107914;1256;59773;-67
2023/04/14 11:20:53;;;;;;;17.60;10.20;;;;;;;25.21;34.77;99718.62;107955;1254;73985;-67
2023/04/14 11:23:26;;;;;;;14.30;9.70;;;;;;;25.65;34.14;99717.41;108014;1254;69242;-67
2023/04/14 11:25:54;;;;;;;15.10;9.60;;;;;;;25.77;33.87;99714.87;108053;1253;73766;-67